Kezdőlap
METAR-TAF:

METAR-TAF

Repülőterek :

Gran Canaria repülőtér

Gran Canaria, Spanyolország

földrajzi szélesség: 27-56N, földrajzi hosszúság: 015-23W, magasság: 23 m

Jelenlegi meteorológiai megfigyelések

A jelentés 38 perccel ezelõtt készült, 02:30 UTC
Északi szél 23 kt
Hőmérséklet 21°C
Páratartalom 78%
Légköri nyomás 1016 hPa
Látótávolság 10 km, vagy több
Szórványos felhőzet 1800 lábon

METAR: GCLP 200230Z 01023KT 9999 SCT018 21/17 Q1016 NOSIG

Idő: 04:08 (03:08 UTC)

Előrejelzés

A jelentés 1 órával és 8 perccel ezelõtt készült, 02:00 UTC
Az előrejelzés 20-én 03 óra UTC és 21-én 03 óra UTC között érvényes
Északi szél 21 kt
Látótávolság 10 km, vagy több
Szórványos felhőzet 2000 lábon
Valószínűség 40% :
20-én 03 óra UTC és 21-én 03 óra UTC között ideiglenes
Északi szél 25 kt széllökések: 35 kt

TAF: GCLP 200200Z 2003/2103 01021KT 9999 SCT020 TX28/2014Z TN21/2005Z PROB40 TEMPO 2003/2103 01025G35KT

Meteorológiai megfigyelések és előrejelzések több, mint 4000 repülőtéren (METAR és TAF jelentéseket).

A térképen piros és sárga pontok jelzik az elérhető meteorológiai állomásokat.

Mozgassa az egeret a pont fölött, hogy megjelenjen az állomás neve.

Azután kattintson az időjárási megfigyelések és előrejelzések megtekintéséhez.

A térkép megváltoztatása: kattintson a fekete keresztel jelölt zöld gombra ráközelítéshez, a vonallal jelölt zöld gombra távolításhoz, vagy a zöld nyilakra a szomszédos térképek eléréséhez.


METAR-TAF: